Terminal Aerodrome Forecast
Issued by NWS Duluth, MN

Home | Current Version | Previous Version | Text Only | Print | Product List | Glossary On
Versions: 1 2 3 4 5 6 7 8 9 10 11 12 13 14 15 16 17 18 19 20 21 22
340
FTUS43 KDLH 191124
TAFINL
TAF
KINL 191124Z 1912/2012 16004KT P6SM SKC
     FM192000 18006KT 6SM BR BKN007
     FM200300 18005KT 1/4SM FZFG BKN002=

USA.gov is the U.S. government's official web portal to all federal, state and local government web resources and services.